Time;durP1;ratioP1;P1;durP2;ratioP2;P2;SDS_P1;SDS_P2;PMS_P1;PMS_P2;Temp;Humidity;BMP_temperature;BMP_pressure;BME280_temperature;BME280_humidity;BME280_pressure;Samples;Min_cycle;Max_cycle;Signal;HPM_P1;HPM_P2
2023/08/11 00:01:09;;;;;;;3.78;2.90;;;;;;;;;;5116485;27;40450;-73
2023/08/11 00:03:37;;;;;;;3.45;3.13;;;;;;;;;;5109254;27;42188;-73
2023/08/11 00:06:07;;;;;;;3.17;2.88;;;;;;;;;;5115652;27;43335;-73
2023/08/11 00:08:37;;;;;;;4.13;2.70;;;;;;;;;;5109348;27;42372;-74
2023/08/11 00:11:06;;;;;;;3.17;2.60;;;;;;;;;;5110098;27;42248;-74
2023/08/11 00:13:34;;;;;;;2.97;2.63;;;;;;;;;;5108317;28;43185;-74
2023/08/11 00:16:03;;;;;;;2.88;2.60;;;;;;;;;;5110100;27;41600;-74
2023/08/11 00:18:31;;;;;;;3.80;3.25;;;;;;;;;;5108640;27;43032;-74
2023/08/11 00:20:59;;;;;;;3.70;2.83;;;;;;;;;;5108562;27;41594;-74
2023/08/11 00:23:29;;;;;;;3.42;2.50;;;;;;;;;;5109212;27;41805;-74
2023/08/11 00:25:57;;;;;;;3.28;2.97;;;;;;;;;;5108919;27;41999;-74
2023/08/11 00:28:26;;;;;;;3.17;2.92;;;;;;;;;;5127891;27;40332;-75
2023/08/11 00:30:55;;;;;;;2.95;2.50;;;;;;;;;;5119775;27;42663;-74
2023/08/11 00:33:23;;;;;;;2.97;2.60;;;;;;;;;;5106911;28;41817;-74
2023/08/11 00:35:51;;;;;;;3.97;2.90;;;;;;;;;;5109886;27;41901;-74
2023/08/11 00:38:21;;;;;;;3.33;2.78;;;;;;;;;;5108876;28;41989;-75
2023/08/11 00:40:51;;;;;;;3.75;3.05;;;;;;;;;;5106780;28;38715;-74
2023/08/11 00:43:19;;;;;;;4.35;2.60;;;;;;;;;;5106800;28;41046;-74
2023/08/11 00:45:48;;;;;;;3.00;2.53;;;;;;;;;;5109315;27;42553;-74
2023/08/11 00:48:16;;;;;;;3.38;3.00;;;;;;;;;;5128636;27;40340;-74
2023/08/11 00:50:44;;;;;;;2.83;2.40;;;;;;;;;;5115968;27;41830;-66
2023/08/11 00:53:14;;;;;;;5.18;2.60;;;;;;;;;;5114537;27;41775;-66
2023/08/11 00:55:42;;;;;;;7.10;2.50;;;;;;;;;;5115362;27;41323;-66
2023/08/11 00:58:12;;;;;;;4.25;2.53;;;;;;;;;;5108043;28;43157;-65
2023/08/11 01:00:40;;;;;;;3.97;2.78;;;;;;;;;;5107713;28;40208;-66
2023/08/11 01:03:08;;;;;;;3.53;3.15;;;;;;;;;;5116212;27;42291;-65
2023/08/11 01:05:39;;;;;;;3.25;2.95;;;;;;;;;;5107676;28;42227;-65
2023/08/11 01:08:09;;;;;;;4.95;2.80;;;;;;;;;;5101736;27;40976;-66
2023/08/11 01:10:38;;;;;;;3.67;2.67;;;;;;;;;;5087253;28;42750;-65
2023/08/11 01:13:07;;;;;;;5.68;3.22;;;;;;;;;;5102317;28;42248;-66
2023/08/11 01:15:38;;;;;;;3.42;2.88;;;;;;;;;;5106791;28;40350;-65
2023/08/11 01:18:06;;;;;;;4.68;3.28;;;;;;;;;;5103564;28;39932;-66
2023/08/11 01:20:34;;;;;;;4.00;3.20;;;;;;;;;;5085689;28;40486;-66
2023/08/11 01:23:03;;;;;;;6.22;2.85;;;;;;;;;;5102767;27;40129;-65
2023/08/11 01:25:33;;;;;;;3.90;3.13;;;;;;;;;;5087009;28;42124;-66
2023/08/11 01:28:02;;;;;;;8.95;2.70;;;;;;;;;;5086492;28;38980;-66
2023/08/11 01:30:30;;;;;;;3.53;2.95;;;;;;;;;;5086460;28;41556;-66
2023/08/11 01:32:58;;;;;;;4.70;3.15;;;;;;;;;;5087135;28;42271;-66
2023/08/11 01:35:26;;;;;;;3.83;2.92;;;;;;;;;;5087341;28;40721;-66
2023/08/11 01:38:08;;;;;;;3.85;3.10;;;;;;;;;;5085675;28;41083;-66
2023/08/11 01:40:39;;;;;;;5.07;3.00;;;;;;;;;;5087320;28;42856;-66
2023/08/11 01:43:08;;;;;;;5.82;3.15;;;;;;;;;;5113974;27;42523;-67
2023/08/11 01:45:36;;;;;;;4.22;3.15;;;;;;;;;;5123608;27;41874;-66
2023/08/11 01:48:06;;;;;;;4.38;3.13;;;;;;;;;;5106801;27;39364;-66
2023/08/11 01:50:34;;;;;;;3.55;2.88;;;;;;;;;;5106515;28;41615;-66
2023/08/11 01:53:05;;;;;;;3.20;2.90;;;;;;;;;;5113974;27;41699;-66
2023/08/11 01:55:36;;;;;;;3.90;2.80;;;;;;;;;;5085223;28;39225;-66
2023/08/11 01:58:05;;;;;;;6.68;3.22;;;;;;;;;;5084764;28;40261;-66
2023/08/11 02:00:33;;;;;;;3.20;2.90;;;;;;;;;;5084723;28;43841;-66
2023/08/11 02:03:02;;;;;;;4.53;3.30;;;;;;;;;;5103832;27;38782;-66
2023/08/11 02:05:31;;;;;;;3.85;3.35;;;;;;;;;;5123499;27;42068;-66
2023/08/11 02:07:59;;;;;;;4.47;3.20;;;;;;;;;;5127023;27;39486;-66
2023/08/11 02:10:29;;;;;;;3.55;3.25;;;;;;;;;;5125980;27;41222;-66
2023/08/11 02:12:58;;;;;;;4.97;3.78;;;;;;;;;;5127321;27;43765;-66
2023/08/11 02:15:27;;;;;;;5.00;3.25;;;;;;;;;;5127728;27;40258;-66
2023/08/11 02:17:55;;;;;;;5.60;3.78;;;;;;;;;;5127303;27;41744;-66
2023/08/11 02:20:23;;;;;;;4.00;3.60;;;;;;;;;;5126374;27;40579;-68
2023/08/11 02:22:52;;;;;;;5.03;3.95;;;;;;;;;;5128258;27;40531;-68
2023/08/11 02:25:25;;;;;;;4.03;3.60;;;;;;;;;;5126695;27;41034;-67
2023/08/11 02:27:53;;;;;;;6.43;3.63;;;;;;;;;;5127158;27;38840;-68
2023/08/11 02:30:22;;;;;;;3.83;3.40;;;;;;;;;;5126422;27;40390;-68
2023/08/11 02:32:52;;;;;;;3.85;3.47;;;;;;;;;;5127488;27;42861;-67
2023/08/11 02:35:21;;;;;;;4.70;3.78;;;;;;;;;;5127798;27;41443;-68
2023/08/11 02:37:49;;;;;;;3.92;3.08;;;;;;;;;;5127552;27;41720;-67
2023/08/11 02:40:19;;;;;;;4.60;3.67;;;;;;;;;;5127158;27;42651;-67
2023/08/11 02:42:53;;;;;;;3.90;3.10;;;;;;;;;;5126536;27;39925;-68
2023/08/11 02:45:21;;;;;;;7.10;3.22;;;;;;;;;;5130389;27;42012;-68
2023/08/11 02:47:49;;;;;;;5.43;3.20;;;;;;;;;;5129488;27;41465;-68
2023/08/11 02:50:19;;;;;;;3.38;2.90;;;;;;;;;;5129782;27;41274;-68
2023/08/11 02:52:47;;;;;;;4.15;2.88;;;;;;;;;;5110946;27;42374;-68
2023/08/11 02:55:15;;;;;;;3.13;2.78;;;;;;;;;;5108694;28;39094;-68
2023/08/11 02:57:43;;;;;;;5.30;3.10;;;;;;;;;;5110813;28;41297;-68
2023/08/11 03:00:12;;;;;;;3.67;2.67;;;;;;;;;;5110182;28;42610;-68
2023/08/11 03:02:41;;;;;;;3.25;2.78;;;;;;;;;;5108912;27;39810;-68
2023/08/11 03:05:11;;;;;;;3.35;2.83;;;;;;;;;;5108934;28;41369;-75
2023/08/11 03:07:43;;;;;;;3.55;2.90;;;;;;;;;;5108050;28;43239;-67
2023/08/11 03:10:11;;;;;;;2.33;2.10;;;;;;;;;;5127217;27;42132;-67
2023/08/11 03:12:41;;;;;;;2.95;2.00;;;;;;;;;;5115741;27;41578;-67
2023/08/11 03:15:10;;;;;;;4.22;3.63;;;;;;;;;;5108413;28;39882;-67
2023/08/11 03:17:38;;;;;;;4.50;2.88;;;;;;;;;;5109888;28;41853;-68
2023/08/11 03:20:12;;;;;;;3.20;2.90;;;;;;;;;;5116770;27;41204;-67
2023/08/11 03:22:42;;;;;;;7.75;3.08;;;;;;;;;;5109787;27;40173;-67
2023/08/11 03:25:13;;;;;;;4.88;2.60;;;;;;;;;;5109163;27;40533;-67
2023/08/11 03:27:42;;;;;;;4.85;3.13;;;;;;;;;;5123443;27;42414;-68
2023/08/11 03:30:15;;;;;;;3.83;3.20;;;;;;;;;;5128992;27;40352;-67
2023/08/11 03:32:48;;;;;;;2.33;1.70;;;;;;;;;;5130756;27;42071;-67
2023/08/11 03:35:18;;;;;;;3.97;3.10;;;;;;;;;;5130049;27;41526;-67
2023/08/11 03:37:49;;;;;;;3.08;2.85;;;;;;;;;;5130349;27;41014;-67
2023/08/11 03:40:17;;;;;;;3.30;3.00;;;;;;;;;;5130249;27;42185;-67
2023/08/11 03:42:52;;;;;;;3.90;3.50;;;;;;;;;;5111662;27;40162;-67
2023/08/11 03:45:21;;;;;;;3.42;2.30;;;;;;;;;;5108317;28;41790;-67
2023/08/11 03:47:49;;;;;;;3.33;3.03;;;;;;;;;;5110021;27;40938;-67
2023/08/11 03:50:23;;;;;;;3.13;2.83;;;;;;;;;;5123134;27;39079;-67
2023/08/11 03:52:52;;;;;;;4.72;3.63;;;;;;;;;;5112186;27;40345;-67
2023/08/11 03:55:20;;;;;;;6.07;2.92;;;;;;;;;;5127962;27;38803;-67
2023/08/11 03:57:49;;;;;;;4.53;3.10;;;;;;;;;;5127958;27;41241;-67
2023/08/11 04:00:20;;;;;;;3.08;2.78;;;;;;;;;;5128715;27;41908;-66
2023/08/11 04:02:59;;;;;;;3.50;3.20;;;;;;;;;;5128643;27;39006;-67
2023/08/11 04:05:27;;;;;;;4.20;3.53;;;;;;;;;;5127806;27;40221;-67
2023/08/11 04:07:57;;;;;;;2.47;1.98;;;;;;;;;;5130308;27;43094;-67
2023/08/11 04:10:25;;;;;;;4.72;3.60;;;;;;;;;;5127941;27;39088;-67
2023/08/11 04:12:53;;;;;;;4.07;3.00;;;;;;;;;;5130314;27;41567;-67
2023/08/11 04:15:21;;;;;;;2.00;1.83;;;;;;;;;;5129249;27;41247;-68
2023/08/11 04:17:49;;;;;;;3.33;3.03;;;;;;;;;;5118209;27;42694;-67
2023/08/11 04:20:17;;;;;;;2.70;2.38;;;;;;;;;;5107937;28;42142;-67
2023/08/11 04:22:45;;;;;;;2.55;2.15;;;;;;;;;;5124575;27;39801;-67
2023/08/11 04:25:14;;;;;;;2.95;2.65;;;;;;;;;;5107414;28;40290;-67
2023/08/11 04:27:45;;;;;;;5.10;3.53;;;;;;;;;;5107761;27;42190;-67
2023/08/11 04:30:14;;;;;;;3.33;3.03;;;;;;;;;;5107923;27;40125;-67
2023/08/11 04:32:45;;;;;;;3.28;2.97;;;;;;;;;;5107233;27;40118;-67
2023/08/11 04:35:13;;;;;;;3.05;2.75;;;;;;;;;;5107686;28;42217;-67
2023/08/11 04:37:42;;;;;;;4.95;3.67;;;;;;;;;;5108098;28;40718;-67
2023/08/11 04:40:15;;;;;;;4.05;2.95;;;;;;;;;;5107037;27;41794;-67
2023/08/11 04:42:44;;;;;;;2.95;2.72;;;;;;;;;;5124605;27;39859;-67
2023/08/11 04:45:15;;;;;;;3.63;3.10;;;;;;;;;;5128296;27;41658;-67
2023/08/11 04:47:45;;;;;;;3.20;2.60;;;;;;;;;;5127619;27;40994;-67
2023/08/11 04:50:17;;;;;;;3.35;3.03;;;;;;;;;;5112805;27;39508;-67
2023/08/11 04:52:47;;;;;;;3.35;2.63;;;;;;;;;;5106391;28;40245;-67
2023/08/11 04:55:17;;;;;;;5.03;2.50;;;;;;;;;;5109189;28;41913;-67
2023/08/11 04:57:45;;;;;;;2.90;2.33;;;;;;;;;;5107426;28;39647;-67
2023/08/11 05:00:16;;;;;;;2.40;2.20;;;;;;;;;;5121370;27;40551;-67
2023/08/11 05:02:45;;;;;;;4.35;2.17;;;;;;;;;;5115307;27;40946;-67
2023/08/11 05:05:13;;;;;;;2.88;2.67;;;;;;;;;;5108799;27;41650;-67
2023/08/11 05:07:42;;;;;;;1.85;1.60;;;;;;;;;;5120900;27;42077;-67
2023/08/11 05:10:10;;;;;;;2.67;2.47;;;;;;;;;;5129191;27;40980;-67
2023/08/11 05:12:39;;;;;;;3.47;2.35;;;;;;;;;;5128492;27;41670;-67
2023/08/11 05:15:08;;;;;;;1.75;1.58;;;;;;;;;;5128379;27;41998;-68
2023/08/11 05:17:36;;;;;;;2.30;2.10;;;;;;;;;;5128426;27;40088;-67
2023/08/11 05:20:06;;;;;;;2.10;1.90;;;;;;;;;;5114726;27;41555;-67
2023/08/11 05:22:34;;;;;;;4.30;1.92;;;;;;;;;;5107784;27;40373;-66
2023/08/11 05:25:03;;;;;;;2.40;2.20;;;;;;;;;;5109000;27;41652;-67
2023/08/11 05:27:31;;;;;;;1.73;1.63;;;;;;;;;;5108507;27;41861;-67
2023/08/11 05:30:00;;;;;;;2.42;2.22;;;;;;;;;;5117649;27;40715;-67
2023/08/11 05:32:28;;;;;;;3.30;2.00;;;;;;;;;;5119653;27;42843;-67
2023/08/11 05:34:59;;;;;;;2.35;1.83;;;;;;;;;;5108117;27;43197;-67
2023/08/11 05:37:27;;;;;;;3.33;3.03;;;;;;;;;;5107615;27;40376;-67
2023/08/11 05:39:55;;;;;;;4.30;2.20;;;;;;;;;;5108332;27;42646;-67
2023/08/11 05:42:23;;;;;;;2.30;1.70;;;;;;;;;;5107070;27;42638;-67
2023/08/11 05:44:51;;;;;;;1.98;1.75;;;;;;;;;;5108322;27;41518;-67
2023/08/11 05:47:21;;;;;;;1.63;1.52;;;;;;;;;;5120735;27;42225;-67
2023/08/11 05:49:49;;;;;;;1.67;1.38;;;;;;;;;;5114319;27;41339;-68
2023/08/11 05:52:17;;;;;;;1.92;1.67;;;;;;;;;;5108080;27;41603;-67
2023/08/11 05:54:45;;;;;;;1.42;1.33;;;;;;;;;;5107818;27;43157;-67
2023/08/11 05:57:13;;;;;;;1.83;1.33;;;;;;;;;;5107545;27;40593;-67
2023/08/11 05:59:41;;;;;;;1.20;1.10;;;;;;;;;;5107727;27;41953;-67
2023/08/11 06:02:09;;;;;;;1.50;1.35;;;;;;;;;;5108104;27;42008;-67
2023/08/11 06:04:38;;;;;;;0.95;0.90;;;;;;;;;;5106990;27;40379;-67
2023/08/11 06:07:07;;;;;;;1.17;1.08;;;;;;;;;;5107744;27;42672;-68
2023/08/11 06:09:35;;;;;;;1.20;1.10;;;;;;;;;;5107524;27;41189;-68
2023/08/11 06:12:03;;;;;;;1.42;1.10;;;;;;;;;;5107365;27;42404;-67
2023/08/11 06:14:31;;;;;;;1.48;1.30;;;;;;;;;;5107776;27;42168;-67
2023/08/11 06:16:59;;;;;;;1.10;1.00;;;;;;;;;;5108123;27;41217;-67
2023/08/11 06:19:27;;;;;;;1.08;0.85;;;;;;;;;;5107407;27;41315;-67
2023/08/11 06:21:57;;;;;;;1.10;1.00;;;;;;;;;;5110749;27;42801;-67
2023/08/11 06:24:25;;;;;;;1.30;1.00;;;;;;;;;;5110639;27;39077;-67
2023/08/11 06:26:53;;;;;;;1.20;1.10;;;;;;;;;;5111174;27;41207;-67
2023/08/11 06:29:21;;;;;;;1.98;1.60;;;;;;;;;;5111033;27;40404;-67
2023/08/11 06:31:49;;;;;;;2.63;2.42;;;;;;;;;;5110064;27;42626;-67
2023/08/11 06:34:18;;;;;;;1.58;1.40;;;;;;;;;;5111570;27;41795;-67
2023/08/11 06:36:46;;;;;;;5.28;3.72;;;;;;;;;;5116659;27;41028;-67
2023/08/11 06:39:16;;;;;;;1.20;1.10;;;;;;;;;;5131039;27;41918;-67
2023/08/11 06:41:44;;;;;;;2.42;1.55;;;;;;;;;;5130834;27;41476;-67
2023/08/11 06:44:12;;;;;;;1.30;1.10;;;;;;;;;;5129889;27;38971;-67
2023/08/11 06:46:40;;;;;;;1.92;1.35;;;;;;;;;;5128852;27;41549;-67
2023/08/11 06:49:08;;;;;;;1.25;1.15;;;;;;;;;;5122543;27;42072;-67
2023/08/11 06:51:36;;;;;;;1.65;1.05;;;;;;;;;;5110632;27;41460;-67
2023/08/11 06:54:04;;;;;;;1.52;1.42;;;;;;;;;;5110245;27;42137;-67
2023/08/11 06:56:34;;;;;;;1.25;1.00;;;;;;;;;;5110127;27;41024;-67
2023/08/11 06:59:02;;;;;;;1.58;1.40;;;;;;;;;;5111005;27;41716;-67
2023/08/11 07:01:30;;;;;;;1.42;1.08;;;;;;;;;;5109655;27;41350;-67
2023/08/11 07:03:58;;;;;;;1.75;1.45;;;;;;;;;;5111085;27;40332;-67
2023/08/11 07:06:29;;;;;;;2.08;1.88;;;;;;;;;;5109717;27;42615;-68
2023/08/11 07:08:57;;;;;;;1.27;1.10;;;;;;;;;;5110317;27;41954;-67
2023/08/11 07:11:25;;;;;;;1.13;0.90;;;;;;;;;;5110706;27;40380;-67
2023/08/11 07:13:54;;;;;;;2.70;1.90;;;;;;;;;;5109811;27;42171;-67
2023/08/11 07:16:22;;;;;;;1.13;1.00;;;;;;;;;;5112969;27;39827;-67
2023/08/11 07:18:50;;;;;;;1.50;1.40;;;;;;;;;;5124242;27;42049;-67
2023/08/11 07:21:18;;;;;;;1.90;1.75;;;;;;;;;;5108459;27;41631;-67
2023/08/11 07:23:46;;;;;;;1.33;1.23;;;;;;;;;;5110250;27;42314;-67
2023/08/11 07:26:14;;;;;;;1.30;1.20;;;;;;;;;;5118049;27;41558;-71
2023/08/11 07:28:42;;;;;;;1.70;1.60;;;;;;;;;;5116571;27;41465;-70
2023/08/11 07:31:11;;;;;;;7.93;3.05;;;;;;;;;;5121590;27;39859;-71
2023/08/11 07:33:40;;;;;;;8.35;3.90;;;;;;;;;;5117136;27;42719;-71
2023/08/11 07:36:08;;;;;;;11.48;4.28;;;;;;;;;;5114524;27;41542;-71
2023/08/11 07:38:36;;;;;;;7.07;4.47;;;;;;;;;;5130209;27;41298;-71
2023/08/11 07:41:04;;;;;;;11.18;4.57;;;;;;;;;;5130711;27;43194;-71
2023/08/11 07:43:32;;;;;;;8.45;4.90;;;;;;;;;;5088702;28;41469;-70
2023/08/11 07:46:00;;;;;;;8.95;5.10;;;;;;;;;;5088944;28;42088;-70
2023/08/11 07:48:29;;;;;;;10.23;5.25;;;;;;;;;;5103847;28;42225;-73
2023/08/11 07:50:57;;;;;;;10.82;5.40;;;;;;;;;;5109734;27;41040;-68
2023/08/11 07:53:25;;;;;;;6.63;5.18;;;;;;;;;;5114285;27;41206;-73
2023/08/11 07:55:53;;;;;;;7.70;5.10;;;;;;;;;;5122929;27;39958;-72
2023/08/11 07:58:22;;;;;;;13.40;5.00;;;;;;;;;;5111023;27;41799;-72
2023/08/11 08:00:50;;;;;;;11.32;5.25;;;;;;;;;;5108926;27;41685;-70
2023/08/11 08:03:18;;;;;;;10.73;5.88;;;;;;;;;;5094275;27;40070;-72
2023/08/11 08:05:47;;;;;;;14.23;6.47;;;;;;;;;;5088630;28;41279;-73
2023/08/11 08:08:15;;;;;;;12.77;6.30;;;;;;;;;;5088901;28;43039;-72
2023/08/11 08:10:43;;;;;;;12.55;6.03;;;;;;;;;;5087947;28;40864;-75
2023/08/11 08:13:11;;;;;;;10.98;6.20;;;;;;;;;;5112874;27;41909;-68
2023/08/11 08:15:39;;;;;;;13.45;6.93;;;;;;;;;;5110960;27;42036;-69
2023/08/11 08:18:07;;;;;;;13.25;6.05;;;;;;;;;;5119830;27;41569;-70
2023/08/11 08:20:35;;;;;;;14.75;6.88;;;;;;;;;;5110589;27;43028;-70
2023/08/11 08:23:04;;;;;;;9.57;6.13;;;;;;;;;;5117008;27;40587;-69
2023/08/11 08:25:32;;;;;;;16.90;6.28;;;;;;;;;;5116164;27;41973;-69
2023/08/11 08:28:00;;;;;;;11.27;5.95;;;;;;;;;;5129849;27;41891;-70
2023/08/11 08:30:33;;;;;;;13.50;6.07;;;;;;;;;;5128922;27;40248;-66
2023/08/11 08:33:01;;;;;;;10.82;5.78;;;;;;;;;;5128724;27;42222;-69
2023/08/11 08:35:29;;;;;;;11.85;6.30;;;;;;;;;;5128566;27;42794;-66
2023/08/11 08:37:57;;;;;;;15.57;6.18;;;;;;;;;;5128536;27;41266;-67
2023/08/11 08:40:27;;;;;;;24.52;6.40;;;;;;;;;;5114552;27;43134;-69
2023/08/11 08:42:55;;;;;;;13.70;6.47;;;;;;;;;;5114091;27;41373;-69
2023/08/11 08:45:23;;;;;;;18.80;6.60;;;;;;;;;;5128476;27;42097;-73
2023/08/11 08:47:52;;;;;;;14.73;6.18;;;;;;;;;;5128955;27;43084;-67
2023/08/11 08:50:21;;;;;;;13.20;6.60;;;;;;;;;;5108282;27;41319;-68
2023/08/11 08:52:49;;;;;;;10.63;5.97;;;;;;;;;;5107495;27;41400;-69
2023/08/11 08:55:17;;;;;;;9.13;6.53;;;;;;;;;;5108402;27;43116;-70
2023/08/11 08:57:46;;;;;;;10.93;6.05;;;;;;;;;;5108336;27;40479;-69
2023/08/11 09:00:15;;;;;;;26.23;7.10;;;;;;;;;;5107715;27;41985;-67
2023/08/11 09:02:43;;;;;;;9.85;6.32;;;;;;;;;;5108063;27;41680;-69
2023/08/11 09:05:12;;;;;;;11.65;6.00;;;;;;;;;;5108233;27;41636;-68
2023/08/11 09:07:40;;;;;;;11.77;6.32;;;;;;;;;;5106523;27;43039;-67
2023/08/11 09:10:08;;;;;;;10.15;6.60;;;;;;;;;;5108207;27;41005;-67
2023/08/11 09:12:36;;;;;;;11.80;6.63;;;;;;;;;;5107965;27;40425;-67
2023/08/11 09:15:11;;;;;;;12.82;6.68;;;;;;;;;;5106775;27;43164;-68
2023/08/11 09:17:39;;;;;;;12.07;6.00;;;;;;;;;;5107277;27;41195;-68
2023/08/11 09:20:09;;;;;;;11.35;6.15;;;;;;;;;;5106159;27;42710;-66
2023/08/11 09:22:38;;;;;;;12.32;5.93;;;;;;;;;;5120566;27;32936;-68
2023/08/11 09:25:07;;;;;;;10.48;5.90;;;;;;;;;;5128404;27;41739;-67
2023/08/11 09:27:36;;;;;;;10.98;6.47;;;;;;;;;;5127242;27;42116;-68
2023/08/11 09:30:04;;;;;;;7.35;5.78;;;;;;;;;;5128189;27;41398;-68
2023/08/11 09:32:33;;;;;;;12.65;5.32;;;;;;;;;;5127936;27;42322;-68
2023/08/11 09:35:02;;;;;;;11.38;6.03;;;;;;;;;;5127705;27;42053;-69
2023/08/11 09:37:30;;;;;;;14.82;5.97;;;;;;;;;;5127914;27;41412;-70
2023/08/11 09:40:03;;;;;;;13.38;5.60;;;;;;;;;;5128353;27;42641;-67
2023/08/11 09:42:32;;;;;;;8.55;5.47;;;;;;;;;;5127251;27;42037;-68
2023/08/11 09:45:00;;;;;;;8.00;5.75;;;;;;;;;;5115553;27;41711;-68
2023/08/11 09:47:28;;;;;;;7.22;5.03;;;;;;;;;;5119158;27;43156;-67
2023/08/11 09:49:58;;;;;;;10.10;5.97;;;;;;;;;;5127113;27;41037;-67
2023/08/11 09:52:27;;;;;;;11.45;5.15;;;;;;;;;;5120756;27;40987;-68
2023/08/11 09:54:55;;;;;;;11.65;5.38;;;;;;;;;;5106695;27;42973;-66
2023/08/11 09:57:23;;;;;;;9.48;5.38;;;;;;;;;;5107019;27;40351;-68
2023/08/11 09:59:51;;;;;;;6.40;4.70;;;;;;;;;;5107174;27;41411;-66
2023/08/11 10:02:20;;;;;;;8.82;4.88;;;;;;;;;;5106597;27;41724;-67
2023/08/11 10:04:50;;;;;;;7.05;4.75;;;;;;;;;;5107742;27;40856;-72
2023/08/11 10:07:20;;;;;;;10.60;5.30;;;;;;;;;;5119177;27;41535;-71
2023/08/11 10:09:48;;;;;;;10.65;4.82;;;;;;;;;;5126845;27;41360;-71
2023/08/11 10:12:16;;;;;;;6.68;4.00;;;;;;;;;;5128227;27;42865;-70
2023/08/11 10:14:46;;;;;;;6.18;4.53;;;;;;;;;;5116467;27;42271;-71
2023/08/11 10:17:14;;;;;;;6.20;3.97;;;;;;;;;;5106769;27;41223;-71
2023/08/11 10:19:42;;;;;;;16.05;4.38;;;;;;;;;;5106512;27;41495;-67
2023/08/11 10:22:10;;;;;;;4.97;3.70;;;;;;;;;;5110575;27;42804;-66
2023/08/11 10:24:42;;;;;;;6.28;3.95;;;;;;;;;;5112756;27;40924;-69
2023/08/11 10:27:10;;;;;;;8.23;3.60;;;;;;;;;;5111380;27;41442;-67
2023/08/11 10:29:38;;;;;;;5.63;4.07;;;;;;;;;;5106072;27;40632;-66
2023/08/11 10:32:06;;;;;;;6.97;3.88;;;;;;;;;;5106041;27;41336;-70
2023/08/11 10:34:34;;;;;;;6.00;4.07;;;;;;;;;;5105602;27;41836;-76
2023/08/11 10:37:02;;;;;;;7.38;4.55;;;;;;;;;;5106461;27;40359;-72
2023/08/11 10:39:30;;;;;;;7.57;3.97;;;;;;;;;;5105050;27;41897;-68
2023/08/11 10:42:00;;;;;;;9.85;4.68;;;;;;;;;;5106796;27;41977;-73
2023/08/11 10:44:28;;;;;;;6.72;4.30;;;;;;;;;;5105579;27;39823;-70
2023/08/11 10:46:58;;;;;;;11.43;4.75;;;;;;;;;;5106927;27;41370;-68
2023/08/11 10:49:33;;;;;;;7.97;4.10;;;;;;;;;;5106222;27;41655;-69
2023/08/11 10:52:01;;;;;;;8.48;4.30;;;;;;;;;;5106260;27;42582;-69
2023/08/11 10:54:29;;;;;;;6.03;3.97;;;;;;;;;;5106307;27;42267;-69
2023/08/11 10:56:57;;;;;;;7.03;4.25;;;;;;;;;;5108902;27;39981;-69
2023/08/11 10:59:28;;;;;;;9.35;5.28;;;;;;;;;;5109802;27;39319;-69
2023/08/11 11:01:57;;;;;;;10.05;4.78;;;;;;;;;;5105670;27;43035;-68
2023/08/11 11:04:28;;;;;;;4.30;3.83;;;;;;;;;;5105477;27;40061;-67
2023/08/11 11:06:57;;;;;;;5.22;3.92;;;;;;;;;;5106820;28;41721;-65
2023/08/11 11:09:25;;;;;;;8.27;3.92;;;;;;;;;;5109344;27;43805;-69
2023/08/11 11:11:53;;;;;;;7.70;4.07;;;;;;;;;;5110930;27;40048;-70
2023/08/11 11:14:22;;;;;;;9.70;4.25;;;;;;;;;;5108412;27;42644;-69
2023/08/11 11:16:51;;;;;;;5.95;3.75;;;;;;;;;;5109307;27;41543;-69
2023/08/11 11:19:20;;;;;;;7.07;3.42;;;;;;;;;;5109692;27;42446;-62
2023/08/11 11:21:48;;;;;;;8.48;3.80;;;;;;;;;;5111862;27;41967;-66
2023/08/11 11:24:17;;;;;;;7.10;3.92;;;;;;;;;;5118962;27;40242;-66
2023/08/11 11:26:45;;;;;;;9.65;3.63;;;;;;;;;;5110103;27;42703;-64
2023/08/11 11:29:13;;;;;;;8.95;3.78;;;;;;;;;;5109055;27;42713;-64
2023/08/11 11:31:41;;;;;;;6.35;3.70;;;;;;;;;;5107849;27;41241;-66
2023/08/11 11:34:10;;;;;;;4.80;3.55;;;;;;;;;;5107314;27;42985;-66
2023/08/11 11:36:38;;;;;;;7.70;3.85;;;;;;;;;;5107687;27;40539;-66
2023/08/11 11:39:08;;;;;;;5.10;3.30;;;;;;;;;;5108153;27;40954;-64
2023/08/11 11:41:36;;;;;;;5.20;3.47;;;;;;;;;;5106480;27;42505;-65
2023/08/11 11:44:04;;;;;;;4.70;3.72;;;;;;;;;;5108199;27;40593;-66
2023/08/11 11:46:32;;;;;;;9.23;3.65;;;;;;;;;;5108994;27;42030;-65
2023/08/11 11:49:01;;;;;;;8.80;3.40;;;;;;;;;;5109150;27;42041;-66
2023/08/11 11:51:40;;;;;;;5.22;3.72;;;;;;;;;;5108332;27;41535;-69
2023/08/11 11:54:08;;;;;;;7.15;4.38;;;;;;;;;;5109657;27;42569;-64
2023/08/11 11:56:36;;;;;;;6.78;3.90;;;;;;;;;;5108255;27;41496;-67
2023/08/11 11:59:11;;;;;;;8.63;3.80;;;;;;;;;;5110036;27;41727;-66
2023/08/11 12:01:40;;;;;;;7.65;3.90;;;;;;;;;;5108555;27;42174;-66
2023/08/11 12:04:08;;;;;;;6.60;3.63;;;;;;;;;;5110382;27;41347;-67
2023/08/11 12:06:36;;;;;;;5.25;3.72;;;;;;;;;;5108909;27;42635;-66
2023/08/11 12:09:09;;;;;;;6.00;3.95;;;;;;;;;;5108938;27;43446;-67
2023/08/11 12:11:38;;;;;;;4.90;3.38;;;;;;;;;;5108963;27;40102;-66
2023/08/11 12:14:07;;;;;;;5.47;3.60;;;;;;;;;;5109441;27;41697;-66
2023/08/11 12:16:35;;;;;;;6.78;3.47;;;;;;;;;;5106180;27;42130;-66
2023/08/11 12:19:04;;;;;;;4.97;3.17;;;;;;;;;;5108885;27;41529;-67
2023/08/11 12:21:35;;;;;;;5.32;3.42;;;;;;;;;;5108889;27;41934;-66
2023/08/11 12:24:05;;;;;;;3.83;3.08;;;;;;;;;;5109179;27;39908;-67
2023/08/11 12:26:35;;;;;;;7.03;3.38;;;;;;;;;;5108889;27;40964;-67
2023/08/11 12:29:05;;;;;;;5.50;3.00;;;;;;;;;;5109170;27;41736;-67
2023/08/11 12:31:32;;;;;;;3.97;3.00;;;;;;;;;;5107563;27;40408;-67
2023/08/11 12:34:01;;;;;;;5.28;2.97;;;;;;;;;;5109567;27;41567;-67
2023/08/11 12:36:29;;;;;;;4.78;2.67;;;;;;;;;;5108764;27;41859;-67
2023/08/11 12:38:57;;;;;;;5.80;2.78;;;;;;;;;;5109181;27;40429;-66
2023/08/11 12:41:25;;;;;;;4.20;2.60;;;;;;;;;;5108839;27;42077;-67
2023/08/11 12:43:54;;;;;;;4.60;2.85;;;;;;;;;;5107578;27;40695;-67
2023/08/11 12:46:22;;;;;;;5.50;2.90;;;;;;;;;;5109235;27;42063;-67
2023/08/11 12:48:50;;;;;;;4.82;2.92;;;;;;;;;;5109235;27;41736;-67
2023/08/11 12:51:18;;;;;;;4.75;2.75;;;;;;;;;;5108225;27;40084;-67
2023/08/11 12:53:46;;;;;;;4.80;2.40;;;;;;;;;;5109162;27;42180;-67
2023/08/11 12:56:14;;;;;;;4.85;2.50;;;;;;;;;;5109195;27;42174;-67
2023/08/11 12:58:43;;;;;;;5.50;2.90;;;;;;;;;;5107904;27;40559;-67
2023/08/11 13:01:13;;;;;;;3.75;2.78;;;;;;;;;;5109557;27;41465;-67
2023/08/11 13:03:44;;;;;;;3.45;2.40;;;;;;;;;;5108706;27;41278;-67
2023/08/11 13:06:13;;;;;;;6.22;2.92;;;;;;;;;;5108474;27;42097;-67
2023/08/11 13:08:41;;;;;;;7.93;2.50;;;;;;;;;;5108034;27;42236;-67
2023/08/11 13:11:09;;;;;;;3.78;2.38;;;;;;;;;;5109310;27;41571;-66
2023/08/11 13:13:37;;;;;;;6.68;2.65;;;;;;;;;;5107006;27;41868;-66
2023/08/11 13:16:05;;;;;;;4.97;2.70;;;;;;;;;;5108789;27;41459;-66
2023/08/11 13:18:34;;;;;;;9.30;2.88;;;;;;;;;;5107896;27;39810;-66
2023/08/11 13:21:03;;;;;;;3.05;2.55;;;;;;;;;;5107036;27;40802;-67
2023/08/11 13:23:32;;;;;;;5.22;2.88;;;;;;;;;;5107775;27;42540;-67
2023/08/11 13:25:59;;;;;;;5.82;2.88;;;;;;;;;;5108041;27;41425;-67
2023/08/11 13:28:28;;;;;;;5.72;3.05;;;;;;;;;;5106897;27;41869;-67
2023/08/11 13:30:55;;;;;;;5.28;2.65;;;;;;;;;;5108395;27;40426;-67
2023/08/11 13:33:23;;;;;;;3.30;3.00;;;;;;;;;;5107021;27;41457;-67
2023/08/11 13:35:53;;;;;;;4.75;3.08;;;;;;;;;;5108264;27;43135;-68
2023/08/11 13:38:22;;;;;;;5.75;3.10;;;;;;;;;;5108054;27;40209;-67
2023/08/11 13:40:50;;;;;;;5.72;2.97;;;;;;;;;;5107202;27;42410;-67
2023/08/11 13:43:19;;;;;;;5.72;2.72;;;;;;;;;;5107507;27;42176;-68
2023/08/11 13:45:47;;;;;;;3.50;2.50;;;;;;;;;;5108082;27;42642;-68
2023/08/11 13:48:16;;;;;;;4.68;3.08;;;;;;;;;;5087430;28;42560;-68
2023/08/11 13:50:44;;;;;;;3.30;3.00;;;;;;;;;;5087148;28;39904;-68
2023/08/11 13:53:14;;;;;;;3.60;2.60;;;;;;;;;;5090979;28;42234;-68
2023/08/11 13:55:42;;;;;;;3.33;2.90;;;;;;;;;;5107218;27;42065;-68
2023/08/11 13:58:10;;;;;;;4.20;3.13;;;;;;;;;;5107840;27;41407;-68
2023/08/11 14:00:38;;;;;;;4.05;2.90;;;;;;;;;;5107394;27;42159;-68
2023/08/11 14:03:06;;;;;;;2.63;2.42;;;;;;;;;;5106695;27;41925;-68
2023/08/11 14:05:34;;;;;;;4.00;2.47;;;;;;;;;;5107864;27;41024;-69
2023/08/11 14:08:02;;;;;;;2.95;2.75;;;;;;;;;;5108029;27;42773;-67
2023/08/11 14:10:31;;;;;;;7.03;3.00;;;;;;;;;;5106727;27;40867;-66
2023/08/11 14:13:00;;;;;;;8.20;2.88;;;;;;;;;;5107798;27;41732;-66
2023/08/11 14:15:27;;;;;;;3.17;2.85;;;;;;;;;;5106164;27;43209;-66
2023/08/11 14:17:56;;;;;;;5.32;2.78;;;;;;;;;;5107634;27;39902;-65
2023/08/11 14:20:24;;;;;;;3.42;3.05;;;;;;;;;;5106714;27;42607;-66
2023/08/11 14:22:52;;;;;;;7.00;3.10;;;;;;;;;;5106367;27;41586;-67
2023/08/11 14:25:20;;;;;;;4.25;3.30;;;;;;;;;;5107535;27;41845;-67
2023/08/11 14:27:49;;;;;;;4.22;2.60;;;;;;;;;;5107737;27;41992;-67
2023/08/11 14:30:17;;;;;;;7.22;2.88;;;;;;;;;;5105880;27;40363;-67
2023/08/11 14:32:45;;;;;;;3.28;2.83;;;;;;;;;;5107809;27;41619;-67
2023/08/11 14:35:14;;;;;;;6.13;2.95;;;;;;;;;;5111639;27;42719;-66
2023/08/11 14:37:42;;;;;;;5.20;3.15;;;;;;;;;;5118163;27;40260;-67
2023/08/11 14:40:10;;;;;;;5.38;2.70;;;;;;;;;;5112738;27;42191;-68
2023/08/11 14:42:38;;;;;;;6.55;2.78;;;;;;;;;;5120809;27;41913;-67
2023/08/11 14:45:08;;;;;;;7.68;2.72;;;;;;;;;;5121016;27;40925;-67
2023/08/11 14:47:36;;;;;;;9.60;2.85;;;;;;;;;;5119391;27;40942;-67
2023/08/11 14:50:05;;;;;;;5.15;3.05;;;;;;;;;;5121326;27;42764;-67